sensor_id;sensor_type;location;lat;lon;timestamp;temperature;humidity
11736;DHT22;5924;51.398;7.088;2024-03-08T00:01:06;1.00;99.90
11736;DHT22;5924;51.398;7.088;2024-03-08T00:03:32;1.00;99.90
11736;DHT22;5924;51.398;7.088;2024-03-08T00:05:59;1.00;99.90
11736;DHT22;5924;51.398;7.088;2024-03-08T00:08:24;1.00;99.90
11736;DHT22;5924;51.398;7.088;2024-03-08T00:10:50;1.00;99.90
11736;DHT22;5924;51.398;7.088;2024-03-08T00:13:16;2.40;99.90
11736;DHT22;5924;51.398;7.088;2024-03-08T00:15:42;0.90;99.90
11736;DHT22;5924;51.398;7.088;2024-03-08T00:18:07;0.90;99.90
11736;DHT22;5924;51.398;7.088;2024-03-08T00:20:33;0.90;99.90
11736;DHT22;5924;51.398;7.088;2024-03-08T00:22:59;0.80;99.90
11736;DHT22;5924;51.398;7.088;2024-03-08T00:25:25;0.80;99.90
11736;DHT22;5924;51.398;7.088;2024-03-08T00:27:50;0.80;99.90
11736;DHT22;5924;51.398;7.088;2024-03-08T00:30:16;0.70;99.90
11736;DHT22;5924;51.398;7.088;2024-03-08T00:32:42;0.70;99.90
11736;DHT22;5924;51.398;7.088;2024-03-08T00:35:08;0.60;99.90
11736;DHT22;5924;51.398;7.088;2024-03-08T00:37:33;0.50;99.90
11736;DHT22;5924;51.398;7.088;2024-03-08T00:40:02;0.40;99.90
11736;DHT22;5924;51.398;7.088;2024-03-08T00:42:28;0.40;99.90
11736;DHT22;5924;51.398;7.088;2024-03-08T00:44:54;0.40;99.90
11736;DHT22;5924;51.398;7.088;2024-03-08T00:47:20;0.30;99.90
11736;DHT22;5924;51.398;7.088;2024-03-08T00:49:45;0.30;99.90
11736;DHT22;5924;51.398;7.088;2024-03-08T00:52:11;0.30;99.90
11736;DHT22;5924;51.398;7.088;2024-03-08T00:54:37;0.30;99.90
11736;DHT22;5924;51.398;7.088;2024-03-08T00:57:03;0.30;99.90
11736;DHT22;5924;51.398;7.088;2024-03-08T00:59:32;0.20;99.90
11736;DHT22;5924;51.398;7.088;2024-03-08T01:01:58;0.20;99.90
11736;DHT22;5924;51.398;7.088;2024-03-08T01:04:25;0.20;99.90
11736;DHT22;5924;51.398;7.088;2024-03-08T01:06:54;0.30;99.90
11736;DHT22;5924;51.398;7.088;2024-03-08T01:09:24;0.30;99.90
11736;DHT22;5924;51.398;7.088;2024-03-08T01:11:50;0.30;99.90
11736;DHT22;5924;51.398;7.088;2024-03-08T01:14:16;0.30;99.90
11736;DHT22;5924;51.398;7.088;2024-03-08T01:16:42;0.20;99.90
11736;DHT22;5924;51.398;7.088;2024-03-08T01:19:08;0.20;99.90
11736;DHT22;5924;51.398;7.088;2024-03-08T01:21:34;0.20;99.90
11736;DHT22;5924;51.398;7.088;2024-03-08T01:24:00;0.10;99.90
11736;DHT22;5924;51.398;7.088;2024-03-08T01:26:25;0.10;99.90
11736;DHT22;5924;51.398;7.088;2024-03-08T01:28:51;0.10;99.90
11736;DHT22;5924;51.398;7.088;2024-03-08T01:31:17;0.10;99.90
11736;DHT22;5924;51.398;7.088;2024-03-08T01:33:42;0.00;99.90
11736;DHT22;5924;51.398;7.088;2024-03-08T01:36:08;0.00;99.90
11736;DHT22;5924;51.398;7.088;2024-03-08T01:38:34;-0.10;99.90
11736;DHT22;5924;51.398;7.088;2024-03-08T01:40:59;-0.10;99.90
11736;DHT22;5924;51.398;7.088;2024-03-08T01:43:26;-0.10;99.90
11736;DHT22;5924;51.398;7.088;2024-03-08T01:45:55;-0.10;99.90
11736;DHT22;5924;51.398;7.088;2024-03-08T01:48:21;-0.10;99.90
11736;DHT22;5924;51.398;7.088;2024-03-08T01:50:50;-0.20;99.90
11736;DHT22;5924;51.398;7.088;2024-03-08T01:53:18;-0.20;99.90
11736;DHT22;5924;51.398;7.088;2024-03-08T01:55:47;-0.20;99.90
11736;DHT22;5924;51.398;7.088;2024-03-08T01:58:13;-0.30;99.90
11736;DHT22;5924;51.398;7.088;2024-03-08T02:00:44;-0.30;99.90
11736;DHT22;5924;51.398;7.088;2024-03-08T02:03:10;-0.30;99.90
11736;DHT22;5924;51.398;7.088;2024-03-08T02:05:37;-0.30;99.90
11736;DHT22;5924;51.398;7.088;2024-03-08T02:08:04;-0.40;99.90
11736;DHT22;5924;51.398;7.088;2024-03-08T02:10:33;-0.40;99.90
11736;DHT22;5924;51.398;7.088;2024-03-08T02:13:02;-0.40;99.90
11736;DHT22;5924;51.398;7.088;2024-03-08T02:15:53;-0.40;99.90
11736;DHT22;5924;51.398;7.088;2024-03-08T02:18:20;-0.50;99.90
11736;DHT22;5924;51.398;7.088;2024-03-08T02:21:06;-0.50;99.90
11736;DHT22;5924;51.398;7.088;2024-03-08T02:23:32;0.30;99.90
11736;DHT22;5924;51.398;7.088;2024-03-08T02:25:58;-0.50;99.90
11736;DHT22;5924;51.398;7.088;2024-03-08T02:28:25;-0.60;99.90
11736;DHT22;5924;51.398;7.088;2024-03-08T02:30:51;-0.60;99.90
11736;DHT22;5924;51.398;7.088;2024-03-08T02:33:20;-0.60;99.90
11736;DHT22;5924;51.398;7.088;2024-03-08T02:35:46;0.00;99.90
11736;DHT22;5924;51.398;7.088;2024-03-08T02:38:20;-0.70;99.90
11736;DHT22;5924;51.398;7.088;2024-03-08T02:40:47;-0.70;99.90
11736;DHT22;5924;51.398;7.088;2024-03-08T02:43:14;-0.70;99.90
11736;DHT22;5924;51.398;7.088;2024-03-08T02:45:40;-0.70;99.90
11736;DHT22;5924;51.398;7.088;2024-03-08T02:48:13;-0.70;99.90
11736;DHT22;5924;51.398;7.088;2024-03-08T02:50:39;-0.80;99.90
11736;DHT22;5924;51.398;7.088;2024-03-08T02:53:11;-0.80;99.90
11736;DHT22;5924;51.398;7.088;2024-03-08T02:55:39;-0.80;99.90
11736;DHT22;5924;51.398;7.088;2024-03-08T02:58:05;-0.80;99.90
11736;DHT22;5924;51.398;7.088;2024-03-08T03:00:30;-0.80;99.90
11736;DHT22;5924;51.398;7.088;2024-03-08T03:02:59;-0.80;99.90
11736;DHT22;5924;51.398;7.088;2024-03-08T03:05:28;-2.20;99.90
11736;DHT22;5924;51.398;7.088;2024-03-08T03:07:55;-0.80;99.90
11736;DHT22;5924;51.398;7.088;2024-03-08T03:10:20;-0.90;99.90
11736;DHT22;5924;51.398;7.088;2024-03-08T03:12:48;-0.90;99.90
11736;DHT22;5924;51.398;7.088;2024-03-08T03:15:17;-0.90;99.90
11736;DHT22;5924;51.398;7.088;2024-03-08T03:17:49;-0.70;99.90
11736;DHT22;5924;51.398;7.088;2024-03-08T03:20:18;-0.90;99.90
11736;DHT22;5924;51.398;7.088;2024-03-08T03:22:58;-0.90;99.90
11736;DHT22;5924;51.398;7.088;2024-03-08T03:25:26;-0.90;99.90
11736;DHT22;5924;51.398;7.088;2024-03-08T03:27:58;-0.90;99.90
11736;DHT22;5924;51.398;7.088;2024-03-08T03:30:24;-0.90;99.90
11736;DHT22;5924;51.398;7.088;2024-03-08T03:32:52;-0.90;99.90
11736;DHT22;5924;51.398;7.088;2024-03-08T03:35:18;-0.90;99.90
11736;DHT22;5924;51.398;7.088;2024-03-08T03:37:46;-0.90;99.90
11736;DHT22;5924;51.398;7.088;2024-03-08T03:40:29;-0.90;99.90
11736;DHT22;5924;51.398;7.088;2024-03-08T03:42:55;-0.90;99.90
11736;DHT22;5924;51.398;7.088;2024-03-08T03:45:21;-0.90;99.90
11736;DHT22;5924;51.398;7.088;2024-03-08T03:47:47;-1.00;99.90
11736;DHT22;5924;51.398;7.088;2024-03-08T03:50:13;-1.00;99.90
11736;DHT22;5924;51.398;7.088;2024-03-08T03:52:38;-1.10;99.90
11736;DHT22;5924;51.398;7.088;2024-03-08T03:55:04;-1.10;99.90
11736;DHT22;5924;51.398;7.088;2024-03-08T03:57:33;-1.20;99.90
11736;DHT22;5924;51.398;7.088;2024-03-08T03:59:59;-1.20;99.90
11736;DHT22;5924;51.398;7.088;2024-03-08T04:02:25;-1.20;99.90
11736;DHT22;5924;51.398;7.088;2024-03-08T04:04:52;-1.20;99.90
11736;DHT22;5924;51.398;7.088;2024-03-08T04:07:18;-1.30;99.90
11736;DHT22;5924;51.398;7.088;2024-03-08T04:09:43;-1.30;99.90
11736;DHT22;5924;51.398;7.088;2024-03-08T04:12:09;-1.30;99.90
11736;DHT22;5924;51.398;7.088;2024-03-08T04:14:35;-0.10;99.90
11736;DHT22;5924;51.398;7.088;2024-03-08T04:17:02;-1.40;99.90
11736;DHT22;5924;51.398;7.088;2024-03-08T04:19:28;-3.70;99.90
11736;DHT22;5924;51.398;7.088;2024-03-08T04:21:54;-1.50;99.90
11736;DHT22;5924;51.398;7.088;2024-03-08T04:24:20;-1.50;99.90
11736;DHT22;5924;51.398;7.088;2024-03-08T04:26:46;-1.50;99.90
11736;DHT22;5924;51.398;7.088;2024-03-08T04:29:12;-1.50;99.90
11736;DHT22;5924;51.398;7.088;2024-03-08T04:31:40;-1.50;99.90
11736;DHT22;5924;51.398;7.088;2024-03-08T04:34:06;-1.50;99.90
11736;DHT22;5924;51.398;7.088;2024-03-08T04:36:31;-1.50;99.90
11736;DHT22;5924;51.398;7.088;2024-03-08T04:38:57;-1.60;99.90
11736;DHT22;5924;51.398;7.088;2024-03-08T04:41:23;-1.60;99.90
11736;DHT22;5924;51.398;7.088;2024-03-08T04:43:49;0.30;99.90
11736;DHT22;5924;51.398;7.088;2024-03-08T04:46:15;-1.60;99.90
11736;DHT22;5924;51.398;7.088;2024-03-08T04:48:41;-1.60;99.90
11736;DHT22;5924;51.398;7.088;2024-03-08T04:51:09;-1.60;99.90
11736;DHT22;5924;51.398;7.088;2024-03-08T04:53:35;-1.60;99.90
11736;DHT22;5924;51.398;7.088;2024-03-08T04:56:00;-1.60;99.90
11736;DHT22;5924;51.398;7.088;2024-03-08T04:58:32;-1.30;99.90
11736;DHT22;5924;51.398;7.088;2024-03-08T05:01:00;-1.60;99.90
11736;DHT22;5924;51.398;7.088;2024-03-08T05:03:26;-1.60;99.90
11736;DHT22;5924;51.398;7.088;2024-03-08T05:05:51;-1.60;99.90
11736;DHT22;5924;51.398;7.088;2024-03-08T05:08:17;-1.60;99.90
11736;DHT22;5924;51.398;7.088;2024-03-08T05:10:44;-1.60;99.90
11736;DHT22;5924;51.398;7.088;2024-03-08T05:13:10;-1.60;99.90
11736;DHT22;5924;51.398;7.088;2024-03-08T05:15:36;-1.60;99.90
11736;DHT22;5924;51.398;7.088;2024-03-08T05:18:02;-1.60;99.90
11736;DHT22;5924;51.398;7.088;2024-03-08T05:20:27;-0.90;99.90
11736;DHT22;5924;51.398;7.088;2024-03-08T05:22:53;-1.60;99.90
11736;DHT22;5924;51.398;7.088;2024-03-08T05:25:18;-1.60;99.90
11736;DHT22;5924;51.398;7.088;2024-03-08T05:27:44;-1.60;99.90
11736;DHT22;5924;51.398;7.088;2024-03-08T05:30:10;1.30;99.90
11736;DHT22;5924;51.398;7.088;2024-03-08T05:32:41;-1.60;99.90
11736;DHT22;5924;51.398;7.088;2024-03-08T05:35:10;-1.60;99.90
11736;DHT22;5924;51.398;7.088;2024-03-08T05:37:40;-1.70;99.90
11736;DHT22;5924;51.398;7.088;2024-03-08T05:40:06;-1.60;99.90
11736;DHT22;5924;51.398;7.088;2024-03-08T05:42:38;-1.60;99.90
11736;DHT22;5924;51.398;7.088;2024-03-08T05:45:04;-1.70;99.90
11736;DHT22;5924;51.398;7.088;2024-03-08T05:47:31;-1.60;99.90
11736;DHT22;5924;51.398;7.088;2024-03-08T05:49:59;-1.60;99.90
11736;DHT22;5924;51.398;7.088;2024-03-08T05:52:25;-1.60;99.90
11736;DHT22;5924;51.398;7.088;2024-03-08T05:54:53;-1.60;99.90
11736;DHT22;5924;51.398;7.088;2024-03-08T05:57:19;-1.60;99.90
11736;DHT22;5924;51.398;7.088;2024-03-08T05:59:45;-1.60;99.90
11736;DHT22;5924;51.398;7.088;2024-03-08T06:02:10;-1.60;99.90
11736;DHT22;5924;51.398;7.088;2024-03-08T06:04:36;-1.60;99.90
11736;DHT22;5924;51.398;7.088;2024-03-08T06:07:03;-1.60;99.90
11736;DHT22;5924;51.398;7.088;2024-03-08T06:09:29;-1.60;99.90
11736;DHT22;5924;51.398;7.088;2024-03-08T06:11:55;-1.60;99.90
11736;DHT22;5924;51.398;7.088;2024-03-08T06:14:22;-1.60;99.90
11736;DHT22;5924;51.398;7.088;2024-03-08T06:16:48;-1.60;99.90
11736;DHT22;5924;51.398;7.088;2024-03-08T06:19:16;-1.60;99.90
11736;DHT22;5924;51.398;7.088;2024-03-08T06:21:41;-1.60;99.90
11736;DHT22;5924;51.398;7.088;2024-03-08T06:24:07;-1.60;99.90
11736;DHT22;5924;51.398;7.088;2024-03-08T06:26:33;-1.60;99.90
11736;DHT22;5924;51.398;7.088;2024-03-08T06:28:59;-1.60;99.90
11736;DHT22;5924;51.398;7.088;2024-03-08T06:31:25;-1.60;99.90
11736;DHT22;5924;51.398;7.088;2024-03-08T06:33:50;0.60;99.90
11736;DHT22;5924;51.398;7.088;2024-03-08T06:36:17;-1.50;99.90
11736;DHT22;5924;51.398;7.088;2024-03-08T06:38:45;-1.50;99.90
11736;DHT22;5924;51.398;7.088;2024-03-08T06:41:11;-1.50;99.90
11736;DHT22;5924;51.398;7.088;2024-03-08T06:43:47;-1.40;99.90
11736;DHT22;5924;51.398;7.088;2024-03-08T06:46:17;-1.40;99.90
11736;DHT22;5924;51.398;7.088;2024-03-08T06:48:43;-1.30;99.90
11736;DHT22;5924;51.398;7.088;2024-03-08T06:51:08;-1.20;99.90
11736;DHT22;5924;51.398;7.088;2024-03-08T06:53:36;-1.30;99.90
11736;DHT22;5924;51.398;7.088;2024-03-08T06:56:03;-1.20;99.90
11736;DHT22;5924;51.398;7.088;2024-03-08T06:58:28;-1.10;99.90
11736;DHT22;5924;51.398;7.088;2024-03-08T07:00:54;-1.00;99.90
11736;DHT22;5924;51.398;7.088;2024-03-08T07:03:23;-1.00;99.90
11736;DHT22;5924;51.398;7.088;2024-03-08T07:05:49;-0.90;99.90
11736;DHT22;5924;51.398;7.088;2024-03-08T07:08:15;-0.80;99.90
11736;DHT22;5924;51.398;7.088;2024-03-08T07:10:42;-0.70;99.90
11736;DHT22;5924;51.398;7.088;2024-03-08T07:13:08;-0.60;99.90
11736;DHT22;5924;51.398;7.088;2024-03-08T07:15:33;-0.50;99.90
11736;DHT22;5924;51.398;7.088;2024-03-08T07:18:00;-0.40;99.90
11736;DHT22;5924;51.398;7.088;2024-03-08T07:20:25;-0.40;99.90
11736;DHT22;5924;51.398;7.088;2024-03-08T07:22:51;-0.30;99.90
11736;DHT22;5924;51.398;7.088;2024-03-08T07:25:17;-0.20;99.90
11736;DHT22;5924;51.398;7.088;2024-03-08T07:27:55;-0.20;99.90
11736;DHT22;5924;51.398;7.088;2024-03-08T07:30:22;-0.10;99.90
11736;DHT22;5924;51.398;7.088;2024-03-08T07:33:07;0.00;99.90
11736;DHT22;5924;51.398;7.088;2024-03-08T07:35:33;0.10;99.90
11736;DHT22;5924;51.398;7.088;2024-03-08T07:38:03;0.20;99.90
11736;DHT22;5924;51.398;7.088;2024-03-08T07:40:31;0.30;99.90
11736;DHT22;5924;51.398;7.088;2024-03-08T07:42:56;0.40;99.90
11736;DHT22;5924;51.398;7.088;2024-03-08T07:45:23;0.50;99.90
11736;DHT22;5924;51.398;7.088;2024-03-08T07:47:49;0.70;99.90
11736;DHT22;5924;51.398;7.088;2024-03-08T07:50:16;0.90;99.90
11736;DHT22;5924;51.398;7.088;2024-03-08T07:52:42;1.00;99.90
11736;DHT22;5924;51.398;7.088;2024-03-08T07:55:08;1.20;99.90
11736;DHT22;5924;51.398;7.088;2024-03-08T07:57:35;1.30;99.90
11736;DHT22;5924;51.398;7.088;2024-03-08T08:00:04;1.50;99.90
11736;DHT22;5924;51.398;7.088;2024-03-08T08:02:33;1.60;99.90
11736;DHT22;5924;51.398;7.088;2024-03-08T08:04:59;1.70;99.90
11736;DHT22;5924;51.398;7.088;2024-03-08T08:07:28;1.80;99.90
11736;DHT22;5924;51.398;7.088;2024-03-08T08:09:53;2.00;99.90
11736;DHT22;5924;51.398;7.088;2024-03-08T08:12:19;2.10;99.90
11736;DHT22;5924;51.398;7.088;2024-03-08T08:14:46;2.30;99.90
11736;DHT22;5924;51.398;7.088;2024-03-08T08:17:12;2.40;99.90
11736;DHT22;5924;51.398;7.088;2024-03-08T08:19:40;2.50;99.90
11736;DHT22;5924;51.398;7.088;2024-03-08T08:22:06;2.70;99.90
11736;DHT22;5924;51.398;7.088;2024-03-08T08:24:34;3.00;99.90
11736;DHT22;5924;51.398;7.088;2024-03-08T08:27:02;3.00;99.90
11736;DHT22;5924;51.398;7.088;2024-03-08T08:29:28;3.10;99.90
11736;DHT22;5924;51.398;7.088;2024-03-08T08:31:53;3.30;99.90
11736;DHT22;5924;51.398;7.088;2024-03-08T08:34:19;3.40;99.90
11736;DHT22;5924;51.398;7.088;2024-03-08T08:36:47;3.50;99.90
11736;DHT22;5924;51.398;7.088;2024-03-08T08:39:12;3.70;99.90
11736;DHT22;5924;51.398;7.088;2024-03-08T08:41:39;3.80;99.90
11736;DHT22;5924;51.398;7.088;2024-03-08T08:44:07;4.00;99.90
11736;DHT22;5924;51.398;7.088;2024-03-08T08:46:36;4.20;99.90
11736;DHT22;5924;51.398;7.088;2024-03-08T08:49:03;4.20;99.90
11736;DHT22;5924;51.398;7.088;2024-03-08T08:51:29;4.40;99.90
11736;DHT22;5924;51.398;7.088;2024-03-08T08:53:54;4.50;99.90
11736;DHT22;5924;51.398;7.088;2024-03-08T08:56:21;4.60;99.90
11736;DHT22;5924;51.398;7.088;2024-03-08T08:58:47;4.70;99.90
11736;DHT22;5924;51.398;7.088;2024-03-08T09:01:14;4.90;99.90
11736;DHT22;5924;51.398;7.088;2024-03-08T09:03:40;5.00;99.90
11736;DHT22;5924;51.398;7.088;2024-03-08T09:06:07;5.10;99.90
11736;DHT22;5924;51.398;7.088;2024-03-08T09:08:36;5.20;99.90
11736;DHT22;5924;51.398;7.088;2024-03-08T09:11:03;5.30;99.90
11736;DHT22;5924;51.398;7.088;2024-03-08T09:13:29;5.40;99.90
11736;DHT22;5924;51.398;7.088;2024-03-08T09:15:56;5.50;99.90
11736;DHT22;5924;51.398;7.088;2024-03-08T09:18:21;5.70;99.90
11736;DHT22;5924;51.398;7.088;2024-03-08T09:20:47;5.70;99.90
11736;DHT22;5924;51.398;7.088;2024-03-08T09:23:13;5.80;99.90
11736;DHT22;5924;51.398;7.088;2024-03-08T09:25:38;5.90;99.90
11736;DHT22;5924;51.398;7.088;2024-03-08T09:28:04;6.00;99.90
11736;DHT22;5924;51.398;7.088;2024-03-08T09:30:31;6.10;99.90
11736;DHT22;5924;51.398;7.088;2024-03-08T09:32:57;6.20;99.90
11736;DHT22;5924;51.398;7.088;2024-03-08T09:35:22;6.20;99.90
11736;DHT22;5924;51.398;7.088;2024-03-08T09:37:48;6.40;99.90
11736;DHT22;5924;51.398;7.088;2024-03-08T09:40:16;6.40;99.90
11736;DHT22;5924;51.398;7.088;2024-03-08T09:42:47;6.50;99.90
11736;DHT22;5924;51.398;7.088;2024-03-08T09:45:13;6.50;99.90
11736;DHT22;5924;51.398;7.088;2024-03-08T09:47:44;6.70;99.90
11736;DHT22;5924;51.398;7.088;2024-03-08T09:50:11;6.70;99.90
11736;DHT22;5924;51.398;7.088;2024-03-08T09:52:41;6.80;99.90
11736;DHT22;5924;51.398;7.088;2024-03-08T09:55:10;6.90;99.90
11736;DHT22;5924;51.398;7.088;2024-03-08T09:57:43;7.00;99.90
11736;DHT22;5924;51.398;7.088;2024-03-08T10:00:29;7.10;99.90
11736;DHT22;5924;51.398;7.088;2024-03-08T10:02:54;7.10;99.90
11736;DHT22;5924;51.398;7.088;2024-03-08T10:05:25;7.20;99.90
11736;DHT22;5924;51.398;7.088;2024-03-08T10:07:51;7.30;99.90
11736;DHT22;5924;51.398;7.088;2024-03-08T10:10:16;7.40;99.90
11736;DHT22;5924;51.398;7.088;2024-03-08T10:12:42;7.30;99.90
11736;DHT22;5924;51.398;7.088;2024-03-08T10:15:08;7.50;99.90
11736;DHT22;5924;51.398;7.088;2024-03-08T10:17:35;7.50;99.90
11736;DHT22;5924;51.398;7.088;2024-03-08T10:20:00;7.70;99.90
11736;DHT22;5924;51.398;7.088;2024-03-08T10:22:26;7.80;99.90
11736;DHT22;5924;51.398;7.088;2024-03-08T10:24:52;7.90;99.90
11736;DHT22;5924;51.398;7.088;2024-03-08T10:27:18;8.00;99.90
11736;DHT22;5924;51.398;7.088;2024-03-08T10:29:50;8.10;99.90
11736;DHT22;5924;51.398;7.088;2024-03-08T10:32:17;8.20;99.90
11736;DHT22;5924;51.398;7.088;2024-03-08T10:34:43;7.80;99.90
11736;DHT22;5924;51.398;7.088;2024-03-08T10:37:14;8.20;99.90
11736;DHT22;5924;51.398;7.088;2024-03-08T10:39:48;8.30;99.90
11736;DHT22;5924;51.398;7.088;2024-03-08T10:42:17;8.40;99.90
11736;DHT22;5924;51.398;7.088;2024-03-08T10:44:53;8.50;99.90
11736;DHT22;5924;51.398;7.088;2024-03-08T10:47:26;8.60;99.90
11736;DHT22;5924;51.398;7.088;2024-03-08T10:52:34;8.80;99.90
11736;DHT22;5924;51.398;7.088;2024-03-08T10:55:01;9.00;99.90
11736;DHT22;5924;51.398;7.088;2024-03-08T10:57:27;9.10;99.90
11736;DHT22;5924;51.398;7.088;2024-03-08T10:59:54;9.20;99.90
11736;DHT22;5924;51.398;7.088;2024-03-08T11:02:20;9.20;99.90
11736;DHT22;5924;51.398;7.088;2024-03-08T11:04:50;9.20;99.90
11736;DHT22;5924;51.398;7.088;2024-03-08T11:07:16;9.30;99.90
11736;DHT22;5924;51.398;7.088;2024-03-08T11:09:47;9.40;99.90
11736;DHT22;5924;51.398;7.088;2024-03-08T11:14:59;12.10;99.90
11736;DHT22;5924;51.398;7.088;2024-03-08T11:19:58;9.90;99.90
11736;DHT22;5924;51.398;7.088;2024-03-08T11:22:32;10.00;99.90
11736;DHT22;5924;51.398;7.088;2024-03-08T11:24:59;10.10;99.90
11736;DHT22;5924;51.398;7.088;2024-03-08T11:27:31;10.10;99.90
11736;DHT22;5924;51.398;7.088;2024-03-08T11:30:05;10.20;99.90
11736;DHT22;5924;51.398;7.088;2024-03-08T11:32:46;10.20;99.90
11736;DHT22;5924;51.398;7.088;2024-03-08T11:35:21;10.30;99.90
11736;DHT22;5924;51.398;7.088;2024-03-08T11:37:48;10.40;99.90
11736;DHT22;5924;51.398;7.088;2024-03-08T11:40:15;10.50;99.90
11736;DHT22;5924;51.398;7.088;2024-03-08T11:42:45;10.50;99.90
11736;DHT22;5924;51.398;7.088;2024-03-08T11:45:13;10.60;99.90
11736;DHT22;5924;51.398;7.088;2024-03-08T11:47:42;10.70;99.90
11736;DHT22;5924;51.398;7.088;2024-03-08T11:50:10;10.80;99.90
11736;DHT22;5924;51.398;7.088;2024-03-08T11:52:37;10.90;99.90
11736;DHT22;5924;51.398;7.088;2024-03-08T11:55:03;10.90;99.90
11736;DHT22;5924;51.398;7.088;2024-03-08T11:57:30;12.10;99.90
11736;DHT22;5924;51.398;7.088;2024-03-08T11:59:58;11.00;99.90
11736;DHT22;5924;51.398;7.088;2024-03-08T12:02:31;11.10;99.90
11736;DHT22;5924;51.398;7.088;2024-03-08T12:04:58;11.10;99.90
11736;DHT22;5924;51.398;7.088;2024-03-08T12:07:25;11.20;99.90
11736;DHT22;5924;51.398;7.088;2024-03-08T12:10:19;11.30;99.90
11736;DHT22;5924;51.398;7.088;2024-03-08T12:12:48;11.50;99.90
11736;DHT22;5924;51.398;7.088;2024-03-08T12:15:22;11.60;99.90
11736;DHT22;5924;51.398;7.088;2024-03-08T12:17:50;11.50;99.90
11736;DHT22;5924;51.398;7.088;2024-03-08T12:20:24;11.50;99.90
11736;DHT22;5924;51.398;7.088;2024-03-08T12:22:57;11.50;99.90
11736;DHT22;5924;51.398;7.088;2024-03-08T12:25:26;11.50;99.90
11736;DHT22;5924;51.398;7.088;2024-03-08T12:27:52;11.60;99.90
11736;DHT22;5924;51.398;7.088;2024-03-08T12:30:22;11.60;99.90
11736;DHT22;5924;51.398;7.088;2024-03-08T12:32:52;11.60;99.90
11736;DHT22;5924;51.398;7.088;2024-03-08T12:35:23;11.60;99.90
11736;DHT22;5924;51.398;7.088;2024-03-08T12:37:54;11.60;99.90
11736;DHT22;5924;51.398;7.088;2024-03-08T12:40:27;11.80;99.90
11736;DHT22;5924;51.398;7.088;2024-03-08T12:42:55;12.50;99.90
11736;DHT22;5924;51.398;7.088;2024-03-08T12:45:21;13.40;99.90
11736;DHT22;5924;51.398;7.088;2024-03-08T12:47:50;14.40;99.90
11736;DHT22;5924;51.398;7.088;2024-03-08T12:50:16;15.40;99.90
11736;DHT22;5924;51.398;7.088;2024-03-08T12:52:43;16.20;99.90
11736;DHT22;5924;51.398;7.088;2024-03-08T12:55:09;16.80;99.90
11736;DHT22;5924;51.398;7.088;2024-03-08T12:57:37;17.40;99.90
11736;DHT22;5924;51.398;7.088;2024-03-08T13:00:04;17.80;99.90
11736;DHT22;5924;51.398;7.088;2024-03-08T13:02:30;18.20;99.70
11736;DHT22;5924;51.398;7.088;2024-03-08T13:04:59;18.40;98.20
11736;DHT22;5924;51.398;7.088;2024-03-08T13:07:25;18.60;96.90
11736;DHT22;5924;51.398;7.088;2024-03-08T13:09:55;18.40;94.90
11736;DHT22;5924;51.398;7.088;2024-03-08T13:12:23;18.10;94.40
11736;DHT22;5924;51.398;7.088;2024-03-08T13:14:49;17.80;94.10
11736;DHT22;5924;51.398;7.088;2024-03-08T13:17:16;17.70;95.10
11736;DHT22;5924;51.398;7.088;2024-03-08T13:19:44;17.50;94.00
11736;DHT22;5924;51.398;7.088;2024-03-08T13:22:09;17.50;94.60
11736;DHT22;5924;51.398;7.088;2024-03-08T13:24:44;17.00;93.40
11736;DHT22;5924;51.398;7.088;2024-03-08T13:27:11;16.40;92.10
11736;DHT22;5924;51.398;7.088;2024-03-08T13:29:48;15.70;92.20
11736;DHT22;5924;51.398;7.088;2024-03-08T13:32:17;15.20;92.90
11736;DHT22;5924;51.398;7.088;2024-03-08T13:34:43;14.80;93.60
11736;DHT22;5924;51.398;7.088;2024-03-08T13:37:10;14.40;95.20
11736;DHT22;5924;51.398;7.088;2024-03-08T13:39:37;14.10;95.00
11736;DHT22;5924;51.398;7.088;2024-03-08T13:42:10;13.80;95.40
11736;DHT22;5924;51.398;7.088;2024-03-08T13:44:47;13.70;95.50
11736;DHT22;5924;51.398;7.088;2024-03-08T13:47:14;13.70;96.00
11736;DHT22;5924;51.398;7.088;2024-03-08T13:49:40;13.60;96.00
11736;DHT22;5924;51.398;7.088;2024-03-08T13:52:06;13.50;96.00
11736;DHT22;5924;51.398;7.088;2024-03-08T13:54:34;13.40;97.60
11736;DHT22;5924;51.398;7.088;2024-03-08T13:57:00;14.60;97.30
11736;DHT22;5924;51.398;7.088;2024-03-08T13:59:29;13.20;96.40
11736;DHT22;5924;51.398;7.088;2024-03-08T14:01:56;13.10;97.00
11736;DHT22;5924;51.398;7.088;2024-03-08T14:04:22;13.10;96.80
11736;DHT22;5924;51.398;7.088;2024-03-08T14:06:49;13.30;97.40
11736;DHT22;5924;51.398;7.088;2024-03-08T14:09:15;15.20;96.10
11736;DHT22;5924;51.398;7.088;2024-03-08T14:11:44;14.80;96.00
11736;DHT22;5924;51.398;7.088;2024-03-08T14:14:10;13.70;96.00
11736;DHT22;5924;51.398;7.088;2024-03-08T14:16:38;13.70;95.90
11736;DHT22;5924;51.398;7.088;2024-03-08T14:19:04;13.70;96.40
11736;DHT22;5924;51.398;7.088;2024-03-08T14:21:31;13.60;96.20
11736;DHT22;5924;51.398;7.088;2024-03-08T14:23:57;13.60;96.40
11736;DHT22;5924;51.398;7.088;2024-03-08T14:26:23;13.50;96.50
11736;DHT22;5924;51.398;7.088;2024-03-08T14:28:48;13.40;96.10
11736;DHT22;5924;51.398;7.088;2024-03-08T14:31:17;13.30;96.50
11736;DHT22;5924;51.398;7.088;2024-03-08T14:33:45;13.20;96.70
11736;DHT22;5924;51.398;7.088;2024-03-08T14:36:14;13.00;96.80
11736;DHT22;5924;51.398;7.088;2024-03-08T14:38:42;13.00;97.20
11736;DHT22;5924;51.398;7.088;2024-03-08T14:41:08;13.00;97.60
11736;DHT22;5924;51.398;7.088;2024-03-08T14:43:34;13.00;98.30
11736;DHT22;5924;51.398;7.088;2024-03-08T14:46:00;11.70;97.80
11736;DHT22;5924;51.398;7.088;2024-03-08T14:48:26;12.80;98.90
11736;DHT22;5924;51.398;7.088;2024-03-08T14:50:51;12.70;98.90
11736;DHT22;5924;51.398;7.088;2024-03-08T14:53:17;12.50;98.30
11736;DHT22;5924;51.398;7.088;2024-03-08T14:55:44;12.30;99.00
11736;DHT22;5924;51.398;7.088;2024-03-08T14:58:12;12.30;99.60
11736;DHT22;5924;51.398;7.088;2024-03-08T15:00:38;12.30;99.30
11736;DHT22;5924;51.398;7.088;2024-03-08T15:03:05;12.20;99.30
11736;DHT22;5924;51.398;7.088;2024-03-08T15:05:33;12.10;99.50
11736;DHT22;5924;51.398;7.088;2024-03-08T15:08:03;12.00;99.50
11736;DHT22;5924;51.398;7.088;2024-03-08T15:10:35;12.00;99.90
11736;DHT22;5924;51.398;7.088;2024-03-08T15:13:01;12.00;99.10
11736;DHT22;5924;51.398;7.088;2024-03-08T15:15:28;12.00;99.80
11736;DHT22;5924;51.398;7.088;2024-03-08T15:17:55;12.00;99.30
11736;DHT22;5924;51.398;7.088;2024-03-08T15:20:23;11.90;99.50
11736;DHT22;5924;51.398;7.088;2024-03-08T15:22:50;11.90;99.90
11736;DHT22;5924;51.398;7.088;2024-03-08T15:25:20;11.70;99.90
11736;DHT22;5924;51.398;7.088;2024-03-08T15:27:51;11.70;99.90
11736;DHT22;5924;51.398;7.088;2024-03-08T15:30:17;11.60;99.90
11736;DHT22;5924;51.398;7.088;2024-03-08T15:32:48;11.50;99.90
11736;DHT22;5924;51.398;7.088;2024-03-08T15:35:18;11.50;99.90
11736;DHT22;5924;51.398;7.088;2024-03-08T15:37:44;11.40;99.90
11736;DHT22;5924;51.398;7.088;2024-03-08T15:40:14;11.30;99.90
11736;DHT22;5924;51.398;7.088;2024-03-08T15:45:20;11.20;99.90
11736;DHT22;5924;51.398;7.088;2024-03-08T15:47:46;11.20;99.90
11736;DHT22;5924;51.398;7.088;2024-03-08T15:50:12;11.10;99.90
11736;DHT22;5924;51.398;7.088;2024-03-08T15:52:47;11.00;99.90
11736;DHT22;5924;51.398;7.088;2024-03-08T15:55:16;11.00;99.90
11736;DHT22;5924;51.398;7.088;2024-03-08T15:57:47;10.90;99.90
11736;DHT22;5924;51.398;7.088;2024-03-08T16:00:17;10.90;99.90
11736;DHT22;5924;51.398;7.088;2024-03-08T16:03:05;10.90;99.90
11736;DHT22;5924;51.398;7.088;2024-03-08T16:05:41;10.80;99.90